createdAt,value
2018-04-06T00:02:02.491Z,1.29
2018-04-06T00:04:30.749Z,1.22
2018-04-06T00:06:59.788Z,1.23
2018-04-06T00:09:28.071Z,1.20
2018-04-06T00:11:57.093Z,1.16
2018-04-06T00:14:25.405Z,0.88
2018-04-06T00:16:54.421Z,0.96
2018-04-06T00:19:22.673Z,1.02
2018-04-06T00:21:50.962Z,1.07
2018-04-06T00:24:19.216Z,1.13
2018-04-06T00:26:48.238Z,1.09
2018-04-06T00:29:16.512Z,1.00
2018-04-06T00:31:44.773Z,0.89
2018-04-06T00:34:13.027Z,0.81
2018-04-06T00:36:41.301Z,0.81
2018-04-06T00:39:10.329Z,0.40
2018-04-06T00:41:38.610Z,0.43
2018-04-06T00:44:06.882Z,-0.15
2018-04-06T00:46:35.143Z,-0.35
2018-04-06T00:49:03.417Z,-0.45
2018-04-06T00:51:32.469Z,-0.35
2018-04-06T00:54:00.741Z,-0.11
2018-04-06T00:56:29.003Z,0.14
2018-04-06T00:58:57.276Z,0.29
2018-04-06T01:01:25.597Z,0.48
2018-04-06T01:03:54.633Z,0.58
2018-04-06T01:06:22.888Z,0.66
2018-04-06T01:08:51.168Z,0.77
2018-04-06T01:11:19.437Z,0.83
2018-04-06T01:13:48.552Z,0.81
2018-04-06T01:16:16.828Z,0.84
2018-04-06T01:18:45.110Z,0.82
2018-04-06T01:21:13.355Z,0.77
2018-04-06T01:23:42.417Z,0.67
2018-04-06T01:26:10.681Z,0.53
2018-04-06T01:28:38.933Z,0.53
2018-04-06T01:31:07.408Z,0.32
2018-04-06T01:33:35.709Z,0.24
2018-04-06T01:36:04.012Z,0.04
2018-04-06T01:38:33.136Z,-0.05
2018-04-06T01:41:01.500Z,-0.27
2018-04-06T01:43:29.873Z,-0.43
2018-04-06T01:45:58.968Z,-0.23
2018-04-06T01:48:28.080Z,-0.36
2018-04-06T01:50:57.195Z,-0.33
2018-04-06T01:53:25.484Z,-0.16
2018-04-06T01:55:53.754Z,-0.15
2018-04-06T01:58:22.040Z,-0.43
2018-04-06T02:00:50.312Z,-0.43
2018-04-06T02:03:18.588Z,-0.34
2018-04-06T02:05:46.888Z,-0.30
2018-04-06T02:08:15.191Z,-0.05
2018-04-06T02:10:43.465Z,0.04
2018-04-06T02:13:11.756Z,-0.02
2018-04-06T02:15:40.779Z,-0.48
2018-04-06T02:18:09.057Z,-0.55
2018-04-06T02:20:37.338Z,-0.56
2018-04-06T02:23:05.626Z,-0.43
2018-04-06T02:25:34.025Z,-0.25
2018-04-06T02:28:02.301Z,-0.05
2018-04-06T02:30:30.568Z,0.07
2018-04-06T02:32:58.836Z,0.20
2018-04-06T02:35:27.122Z,0.32
2018-04-06T02:37:55.383Z,0.32
2018-04-06T02:40:23.641Z,0.35
2018-04-06T02:42:51.907Z,0.28
2018-04-06T02:45:20.168Z,0.24
2018-04-06T02:47:49.195Z,0.27
2018-04-06T02:50:17.472Z,0.30
2018-04-06T02:52:45.729Z,0.33
2018-04-06T02:55:13.989Z,-0.07
2018-04-06T02:57:43.039Z,-0.43
2018-04-06T03:00:11.305Z,-0.69
2018-04-06T03:02:39.573Z,-0.54
2018-04-06T03:05:07.875Z,-0.40
2018-04-06T03:07:36.152Z,-0.37
2018-04-06T03:10:04.425Z,-0.36
2018-04-06T03:12:32.732Z,-0.38
2018-04-06T03:15:01.776Z,-0.29
2018-04-06T03:17:30.049Z,-0.39
2018-04-06T03:19:58.335Z,-0.33
2018-04-06T03:22:26.602Z,-0.39
2018-04-06T03:24:54.905Z,-0.32
2018-04-06T03:27:23.181Z,-0.63
2018-04-06T03:29:51.461Z,-0.58
2018-04-06T03:32:19.769Z,-0.61
2018-04-06T03:34:48.813Z,-0.64
2018-04-06T03:37:17.108Z,-0.72
2018-04-06T03:39:45.377Z,-0.64
2018-04-06T03:42:13.655Z,-0.58
2018-04-06T03:44:41.936Z,-0.47
2018-04-06T03:47:10.212Z,-0.41
2018-04-06T03:49:38.480Z,-0.39
2018-04-06T03:52:06.757Z,-0.29
2018-04-06T03:54:35.037Z,-0.22
2018-04-06T03:57:03.322Z,-0.18
2018-04-06T03:59:31.598Z,-0.39
2018-04-06T04:01:59.864Z,-0.32
2018-04-06T04:04:29.158Z,-0.34
2018-04-06T04:06:57.424Z,-0.54
2018-04-06T04:09:25.698Z,-0.40
2018-04-06T04:11:54.000Z,-0.42
2018-04-06T04:14:22.261Z,-0.40
2018-04-06T04:16:50.524Z,-0.87
2018-04-06T04:19:18.811Z,-0.72
2018-04-06T04:21:47.081Z,-0.79
2018-04-06T04:24:15.346Z,-0.76
2018-04-06T04:26:43.650Z,-0.70
2018-04-06T04:29:11.930Z,-0.65
2018-04-06T04:31:40.208Z,-0.92
2018-04-06T04:34:08.498Z,-0.87
2018-04-06T04:36:36.765Z,-0.82
2018-04-06T04:39:05.941Z,-0.67
2018-04-06T04:41:34.232Z,-0.62
2018-04-06T04:44:02.498Z,-0.54
2018-04-06T04:46:30.776Z,-0.70
2018-04-06T04:48:59.061Z,-0.71
2018-04-06T04:51:27.327Z,-0.86
2018-04-06T04:53:55.608Z,-0.98
2018-04-06T04:56:23.877Z,-1.22
2018-04-06T04:58:52.160Z,-0.94
2018-04-06T05:01:20.449Z,-0.97
2018-04-06T05:03:48.792Z,-1.00
2018-04-06T05:06:17.157Z,-0.81
2018-04-06T05:08:45.506Z,-0.78
2018-04-06T05:11:14.633Z,-0.67
2018-04-06T05:13:42.927Z,-0.56
2018-04-06T05:16:11.193Z,-0.61
2018-04-06T05:18:39.456Z,-0.57
2018-04-06T05:21:07.769Z,-0.44
2018-04-06T05:23:36.040Z,-0.67
2018-04-06T05:26:04.348Z,-0.46
2018-04-06T05:28:32.624Z,-0.58
2018-04-06T05:31:00.914Z,-0.46
2018-04-06T05:33:29.965Z,-0.73
2018-04-06T05:35:58.228Z,-0.60
2018-04-06T05:38:26.505Z,-0.37
2018-04-06T05:40:54.785Z,-0.15
2018-04-06T05:43:23.041Z,-0.07
2018-04-06T05:45:51.323Z,-0.01
2018-04-06T05:48:19.580Z,0.23
2018-04-06T05:50:48.605Z,0.30
2018-04-06T05:53:16.880Z,0.33
2018-04-06T05:55:45.161Z,0.14
2018-04-06T05:58:13.432Z,0.26
2018-04-06T06:00:41.706Z,0.40
2018-04-06T06:03:09.957Z,0.61
2018-04-06T06:05:38.219Z,0.68
2018-04-06T06:08:07.249Z,0.64
2018-04-06T06:10:35.500Z,0.80
2018-04-06T06:13:03.779Z,0.73
2018-04-06T06:15:32.045Z,0.78
2018-04-06T06:18:01.076Z,0.79
2018-04-06T06:20:29.348Z,1.06
2018-04-06T06:22:57.637Z,0.93
2018-04-06T06:25:25.890Z,1.09
2018-04-06T06:27:54.176Z,1.31
2018-04-06T06:30:22.442Z,1.37
2018-04-06T06:32:50.744Z,1.52
2018-04-06T06:35:19.008Z,1.69
2018-04-06T06:37:47.278Z,1.86
2018-04-06T06:40:15.557Z,2.01
2018-04-06T06:42:43.810Z,2.15
2018-04-06T06:45:12.876Z,2.25
2018-04-06T06:47:41.148Z,2.37
2018-04-06T06:50:10.916Z,2.50
2018-04-06T06:52:39.187Z,2.66
2018-04-06T06:55:07.445Z,2.84
2018-04-06T06:57:36.517Z,2.97
2018-04-06T07:00:04.774Z,3.05
2018-04-06T07:02:33.024Z,3.14
2018-04-06T07:05:01.302Z,3.27
2018-04-06T07:07:29.572Z,3.44
2018-04-06T07:09:57.833Z,3.44
2018-04-06T07:12:26.333Z,3.36
2018-04-06T07:14:54.661Z,3.20
2018-04-06T07:17:23.680Z,3.24
2018-04-06T07:19:51.948Z,3.30
2018-04-06T07:22:20.202Z,3.29
2018-04-06T07:24:49.293Z,3.42
2018-04-06T07:27:18.319Z,3.60
2018-04-06T07:29:46.605Z,3.78
2018-04-06T07:32:14.881Z,3.85
2018-04-06T07:34:43.145Z,3.88
2018-04-06T07:37:11.412Z,3.83
2018-04-06T07:39:41.688Z,3.93
2018-04-06T07:42:09.950Z,4.05
2018-04-06T07:44:38.239Z,3.81
2018-04-06T07:47:06.516Z,3.81
2018-04-06T07:49:34.771Z,3.97
2018-04-06T07:52:03.033Z,4.12
2018-04-06T07:54:31.320Z,4.36
2018-04-06T07:56:59.628Z,4.59
2018-04-06T07:59:27.846Z,4.76
2018-04-06T08:01:56.885Z,4.63
2018-04-06T08:04:25.140Z,4.93
2018-04-06T08:06:53.405Z,5.13
2018-04-06T08:09:21.687Z,5.07
2018-04-06T08:11:49.956Z,5.30
2018-04-06T08:14:18.212Z,5.54
2018-04-06T08:16:47.336Z,5.39
2018-04-06T08:19:15.580Z,5.73
2018-04-06T08:21:44.612Z,5.86
2018-04-06T08:24:12.948Z,5.90
2018-04-06T08:26:41.976Z,5.86
2018-04-06T08:29:10.226Z,6.24
2018-04-06T08:31:39.350Z,6.29
2018-04-06T08:34:07.596Z,6.52
2018-04-06T08:36:36.623Z,6.78
2018-04-06T08:39:04.894Z,6.90
2018-04-06T08:41:33.153Z,7.21
2018-04-06T08:44:01.459Z,7.40
2018-04-06T08:46:29.717Z,7.54
2018-04-06T08:48:57.979Z,7.54
2018-04-06T08:51:26.256Z,7.68
2018-04-06T08:53:54.508Z,7.79
2018-04-06T08:56:22.782Z,8.02
2018-04-06T08:58:51.026Z,8.00
2018-04-06T09:01:19.285Z,8.07
2018-04-06T09:03:47.552Z,8.28
2018-04-06T09:06:15.826Z,8.41
2018-04-06T09:08:44.080Z,8.51
2018-04-06T09:11:13.126Z,8.58
2018-04-06T09:13:41.377Z,8.70
2018-04-06T09:16:09.640Z,8.77
2018-04-06T09:18:37.904Z,8.73
2018-04-06T09:21:06.936Z,9.05
2018-04-06T09:23:35.184Z,9.20
2018-04-06T09:26:03.465Z,9.37
2018-04-06T09:28:31.717Z,9.36
2018-04-06T09:31:00.738Z,9.38
2018-04-06T09:33:29.047Z,9.29
2018-04-06T09:35:57.309Z,9.35
2018-04-06T09:38:25.570Z,9.64
2018-04-06T09:40:53.844Z,9.48
2018-04-06T09:43:22.089Z,9.69
2018-04-06T09:45:51.156Z,9.90
2018-04-06T09:48:19.433Z,10.07
2018-04-06T09:50:47.701Z,10.32
2018-04-06T09:53:15.973Z,10.26
2018-04-06T09:55:44.257Z,10.36
2018-04-06T09:58:12.548Z,10.53
2018-04-06T10:00:40.813Z,10.71
2018-04-06T10:03:09.103Z,10.74
2018-04-06T10:05:38.893Z,10.85
2018-04-06T10:08:07.184Z,10.82
2018-04-06T10:10:35.465Z,11.06
2018-04-06T10:13:03.726Z,11.18
2018-04-06T10:15:32.001Z,11.29
2018-04-06T10:18:00.315Z,11.59
2018-04-06T10:20:29.345Z,11.68
2018-04-06T10:22:57.617Z,11.65
2018-04-06T10:25:25.901Z,11.93
2018-04-06T10:27:54.160Z,11.95
2018-04-06T10:30:22.424Z,12.11
2018-04-06T10:32:50.700Z,12.18
2018-04-06T10:35:18.971Z,12.17
2018-04-06T10:37:48.040Z,12.43
2018-04-06T10:40:17.828Z,12.44
2018-04-06T10:42:46.092Z,12.25
2018-04-06T10:45:14.379Z,12.73
2018-04-06T10:47:42.640Z,12.58
2018-04-06T10:50:10.902Z,12.68
2018-04-06T10:52:39.177Z,12.68
2018-04-06T10:55:07.445Z,12.97
2018-04-06T10:57:35.779Z,13.06
2018-04-06T11:00:04.041Z,13.31
2018-04-06T11:02:32.300Z,13.27
2018-04-06T11:05:00.584Z,13.43
2018-04-06T11:07:28.852Z,13.39
2018-04-06T11:09:57.131Z,13.39
2018-04-06T11:12:25.392Z,13.62
2018-04-06T11:14:53.676Z,13.88
2018-04-06T11:17:21.963Z,14.04
2018-04-06T11:19:50.232Z,14.16
2018-04-06T11:22:18.509Z,14.24
2018-04-06T11:24:46.780Z,14.24
2018-04-06T11:27:15.088Z,14.43
2018-04-06T11:29:43.342Z,14.66
2018-04-06T11:32:11.620Z,14.74
2018-04-06T11:34:39.914Z,14.85
2018-04-06T11:37:08.196Z,14.94
2018-04-06T11:39:36.456Z,14.89
2018-04-06T11:42:04.733Z,15.08
2018-04-06T11:44:33.014Z,14.79
2018-04-06T11:47:01.273Z,14.74
2018-04-06T11:49:29.556Z,14.63
2018-04-06T11:51:57.836Z,14.61
2018-04-06T11:54:26.113Z,14.88
2018-04-06T11:56:54.397Z,15.25
2018-04-06T11:59:22.665Z,15.42
2018-04-06T12:01:50.944Z,15.14
2018-04-06T12:04:19.216Z,15.05
2018-04-06T12:06:47.528Z,15.00
2018-04-06T12:09:16.557Z,15.17
2018-04-06T12:11:44.820Z,15.41
2018-04-06T12:14:13.096Z,15.35
2018-04-06T12:16:41.372Z,15.82
2018-04-06T12:19:09.660Z,15.77
2018-04-06T12:21:37.920Z,15.73
2018-04-06T12:24:06.188Z,15.88
2018-04-06T12:26:35.237Z,15.96
2018-04-06T12:29:03.503Z,15.76
2018-04-06T12:31:31.792Z,15.95
2018-04-06T12:34:00.059Z,16.35
2018-04-06T12:36:28.416Z,16.84
2018-04-06T12:38:56.694Z,16.44
2018-04-06T12:41:24.980Z,16.93
2018-04-06T12:43:53.257Z,17.19
2018-04-06T12:46:21.532Z,17.47
2018-04-06T12:48:49.864Z,17.50
2018-04-06T12:51:18.088Z,18.14
2018-04-06T12:53:46.361Z,17.70
2018-04-06T12:56:14.679Z,18.05
2018-04-06T12:58:42.944Z,17.80
2018-04-06T13:01:11.237Z,18.37
2018-04-06T13:03:39.492Z,18.93
2018-04-06T13:06:07.816Z,19.48
2018-04-06T13:08:36.089Z,20.27
2018-04-06T13:11:05.142Z,20.06
2018-04-06T13:13:33.396Z,20.62
2018-04-06T13:16:01.766Z,21.03
2018-04-06T13:18:30.065Z,21.51
2018-04-06T13:20:58.353Z,21.77
2018-04-06T13:23:26.636Z,21.16
2018-04-06T13:25:54.974Z,21.36
2018-04-06T13:28:23.257Z,21.68
2018-04-06T13:30:51.536Z,21.99
2018-04-06T13:33:19.813Z,22.24
2018-04-06T13:35:48.096Z,22.39
2018-04-06T13:38:16.354Z,22.26
2018-04-06T13:40:44.725Z,21.13
2018-04-06T13:43:12.983Z,22.02
2018-04-06T13:45:41.286Z,21.49
2018-04-06T13:48:09.548Z,22.13
2018-04-06T13:50:37.822Z,22.95
2018-04-06T13:53:06.096Z,23.67
2018-04-06T13:55:34.356Z,23.99
2018-04-06T13:58:03.409Z,24.46
2018-04-06T14:00:31.673Z,25.26
2018-04-06T14:02:59.948Z,25.05
2018-04-06T14:05:28.235Z,26.65
2018-04-06T14:07:56.529Z,26.64
2018-04-06T14:10:24.808Z,26.76
2018-04-06T14:12:54.568Z,26.78
2018-04-06T14:15:22.828Z,27.69
2018-04-06T14:17:51.108Z,28.00
2018-04-06T14:20:19.373Z,27.01
2018-04-06T14:22:48.422Z,27.24
2018-04-06T14:25:16.709Z,27.91
2018-04-06T14:27:44.969Z,27.99
2018-04-06T14:30:13.249Z,28.20
2018-04-06T14:32:41.514Z,27.69
2018-04-06T14:35:09.802Z,26.70
2018-04-06T14:37:38.146Z,27.25
2018-04-06T14:40:06.368Z,27.61
2018-04-06T14:42:34.628Z,27.22
2018-04-06T14:45:02.893Z,27.52
2018-04-06T14:47:31.195Z,27.78
2018-04-06T14:49:59.533Z,26.07
2018-04-06T14:52:27.804Z,26.37
2018-04-06T14:54:56.078Z,26.17
2018-04-06T14:57:24.359Z,26.75
2018-04-06T14:59:52.705Z,26.79
2018-04-06T15:02:21.733Z,26.45
2018-04-06T15:04:50.016Z,26.33
2018-04-06T15:07:18.307Z,26.10
2018-04-06T15:09:46.576Z,26.61
2018-04-06T15:12:14.837Z,25.95
2018-04-06T15:14:43.113Z,26.27
2018-04-06T15:17:11.405Z,26.21
2018-04-06T15:19:39.677Z,26.42
2018-04-06T15:22:07.960Z,25.67
2018-04-06T15:24:36.295Z,25.30
2018-04-06T15:27:04.512Z,25.90
2018-04-06T15:29:32.792Z,26.16
2018-04-06T15:32:01.069Z,25.74
2018-04-06T15:34:29.345Z,25.53
2018-04-06T15:36:57.631Z,25.74
2018-04-06T15:39:25.908Z,25.31
2018-04-06T15:41:54.194Z,25.32
2018-04-06T15:44:22.474Z,25.87
2018-04-06T15:46:50.769Z,26.34
2018-04-06T15:49:19.796Z,26.36
2018-04-06T15:51:48.074Z,26.85
2018-04-06T15:54:16.364Z,27.07
2018-04-06T15:56:45.487Z,27.05
2018-04-06T15:59:13.773Z,26.21
2018-04-06T16:01:42.042Z,25.70
2018-04-06T16:04:10.300Z,25.53
2018-04-06T16:06:38.576Z,24.88
2018-04-06T16:09:06.850Z,24.49
2018-04-06T16:11:35.143Z,24.01
2018-04-06T16:14:03.405Z,24.79
2018-04-06T16:16:31.681Z,25.20
2018-04-06T16:18:59.962Z,24.18
2018-04-06T16:21:28.228Z,24.66
2018-04-06T16:23:56.500Z,24.29
2018-04-06T16:26:24.793Z,23.61
2018-04-06T16:28:53.062Z,23.32
2018-04-06T16:31:21.353Z,23.39
2018-04-06T16:33:49.618Z,24.00
2018-04-06T16:36:17.882Z,23.99
2018-04-06T16:38:46.152Z,24.40
2018-04-06T16:41:14.450Z,25.20
2018-04-06T16:43:42.799Z,23.89
2018-04-06T16:46:11.065Z,24.82
2018-04-06T16:48:39.354Z,24.70
2018-04-06T16:51:07.649Z,24.99
2018-04-06T16:53:35.930Z,23.74
2018-04-06T16:56:04.220Z,22.78
2018-04-06T16:58:33.244Z,22.51
2018-04-06T17:01:02.305Z,22.82
2018-04-06T17:03:30.562Z,22.10
2018-04-06T17:05:58.825Z,22.71
2018-04-06T17:08:27.101Z,23.39
2018-04-06T17:10:55.372Z,23.10
2018-04-06T17:13:23.660Z,22.76
2018-04-06T17:15:51.930Z,22.30
2018-04-06T17:18:20.193Z,20.13
2018-04-06T17:20:48.477Z,19.34
2018-04-06T17:23:16.741Z,19.16
2018-04-06T17:25:45.132Z,18.06
2018-04-06T17:28:13.395Z,18.15
2018-04-06T17:30:41.665Z,18.10
2018-04-06T17:33:09.940Z,17.07
2018-04-06T17:35:38.218Z,16.84
2018-04-06T17:38:06.508Z,15.95
2018-04-06T17:40:34.770Z,15.94
2018-04-06T17:43:03.057Z,15.41
2018-04-06T17:45:31.374Z,15.06
2018-04-06T17:47:59.636Z,14.71
2018-04-06T17:50:27.925Z,14.60
2018-04-06T17:52:56.185Z,14.55
2018-04-06T17:55:24.465Z,14.63
2018-04-06T17:57:52.768Z,14.34
2018-04-06T18:00:21.022Z,14.33
2018-04-06T18:02:49.319Z,14.30
2018-04-06T18:05:17.608Z,14.30
2018-04-06T18:07:46.648Z,14.11
2018-04-06T18:10:14.928Z,13.74
2018-04-06T18:12:43.196Z,13.52
2018-04-06T18:15:11.477Z,13.48
2018-04-06T18:17:39.769Z,13.35
2018-04-06T18:20:08.050Z,13.16
2018-04-06T18:22:36.320Z,13.15
2018-04-06T18:25:04.592Z,13.12
2018-04-06T18:27:32.880Z,13.04
2018-04-06T18:30:01.210Z,12.81
2018-04-06T18:32:29.773Z,12.72
2018-04-06T18:34:58.398Z,12.76
2018-04-06T18:37:27.185Z,12.73
2018-04-06T18:39:57.003Z,12.34
2018-04-06T18:42:26.608Z,12.08
2018-04-06T18:44:57.477Z,11.88
2018-04-06T18:47:27.518Z,11.91
2018-04-06T18:49:57.528Z,11.12
2018-04-06T18:52:27.522Z,10.95
2018-04-06T18:54:57.332Z,11.15
2018-04-06T18:57:27.313Z,11.20
2018-04-06T18:59:57.896Z,10.96
2018-04-06T19:02:27.816Z,10.46
2018-04-06T19:04:57.887Z,10.47
2018-04-06T19:07:27.917Z,9.96
2018-04-06T19:09:57.879Z,9.80
2018-04-06T19:12:27.623Z,9.87
2018-04-06T19:14:58.668Z,9.64
2018-04-06T19:17:28.515Z,9.55
2018-04-06T19:19:58.425Z,9.56
2018-04-06T19:22:28.403Z,9.72
2018-04-06T19:24:58.561Z,9.60
2018-04-06T19:27:28.684Z,9.63
2018-04-06T19:29:58.796Z,9.54
2018-04-06T19:32:28.740Z,9.66
2018-04-06T19:34:58.812Z,9.70
2018-04-06T19:37:28.798Z,9.43
2018-04-06T19:40:00.363Z,9.43
2018-04-06T19:42:31.084Z,9.27
2018-04-06T19:45:01.935Z,9.42
2018-04-06T19:47:31.833Z,9.23
2018-04-06T19:50:02.770Z,8.79
2018-04-06T19:52:32.919Z,8.95
2018-04-06T19:55:03.061Z,9.05
2018-04-06T19:57:33.036Z,9.08
2018-04-06T20:00:04.180Z,9.12
2018-04-06T20:02:35.353Z,9.09
2018-04-06T20:05:05.314Z,8.75
2018-04-06T20:07:35.150Z,8.76
2018-04-06T20:10:05.960Z,8.83
2018-04-06T20:12:36.025Z,8.46
2018-04-06T20:15:06.844Z,8.23
2018-04-06T20:17:37.603Z,8.34
2018-04-06T20:20:08.589Z,8.29
2018-04-06T20:22:38.630Z,8.30
2018-04-06T20:25:09.110Z,8.24
2018-04-06T20:27:39.443Z,8.14
2018-04-06T20:30:09.317Z,7.58
2018-04-06T20:32:39.306Z,7.80
2018-04-06T20:35:10.693Z,7.85
2018-04-06T20:37:40.909Z,7.79
2018-04-06T20:40:11.572Z,7.78
2018-04-06T20:42:41.666Z,7.68
2018-04-06T20:45:11.294Z,7.58
2018-04-06T20:47:41.563Z,7.35
2018-04-06T20:50:11.078Z,7.19
2018-04-06T20:52:40.507Z,7.23
2018-04-06T20:55:09.954Z,7.42
2018-04-06T20:57:40.139Z,7.44
2018-04-06T21:00:10.227Z,7.16
2018-04-06T21:02:41.190Z,7.24
2018-04-06T21:05:10.999Z,7.20
2018-04-06T21:07:41.075Z,7.16
2018-04-06T21:10:11.821Z,7.11
2018-04-06T21:12:42.660Z,7.05
2018-04-06T21:15:13.889Z,7.13
2018-04-06T21:17:43.968Z,7.18
2018-04-06T21:20:13.605Z,7.17
2018-04-06T21:22:43.731Z,7.11
2018-04-06T21:25:13.744Z,7.08
2018-04-06T21:27:43.883Z,7.08
2018-04-06T21:30:13.472Z,6.85
2018-04-06T21:32:43.380Z,6.86
2018-04-06T21:35:12.977Z,6.79
2018-04-06T21:37:41.388Z,6.65
2018-04-06T21:40:10.007Z,6.55
2018-04-06T21:42:38.463Z,6.38
2018-04-06T21:45:06.940Z,6.39
2018-04-06T21:47:35.292Z,6.08
2018-04-06T21:50:04.581Z,6.10
2018-04-06T21:52:33.722Z,6.18
2018-04-06T21:55:02.038Z,6.21
2018-04-06T21:57:30.336Z,6.27
2018-04-06T21:59:58.591Z,6.34
2018-04-06T22:02:26.884Z,6.43
2018-04-06T22:04:55.891Z,6.46
2018-04-06T22:07:24.177Z,6.39
2018-04-06T22:09:53.200Z,6.36
2018-04-06T22:12:21.480Z,6.08
2018-04-06T22:14:49.755Z,5.91
2018-04-06T22:17:18.016Z,5.88
2018-04-06T22:19:46.295Z,5.92
2018-04-06T22:22:14.561Z,5.88
2018-04-06T22:24:43.614Z,5.83
2018-04-06T22:27:11.875Z,5.76
2018-04-06T22:29:40.148Z,5.64
2018-04-06T22:32:08.408Z,5.55
2018-04-06T22:34:36.679Z,5.42
2018-04-06T22:37:04.957Z,5.40
2018-04-06T22:39:33.229Z,5.25
2018-04-06T22:42:01.504Z,5.28
2018-04-06T22:44:29.748Z,5.31
2018-04-06T22:46:58.787Z,5.27
2018-04-06T22:49:27.064Z,5.27
2018-04-06T22:51:55.322Z,5.27
2018-04-06T22:54:23.612Z,5.20
2018-04-06T22:56:51.868Z,5.35
2018-04-06T22:59:20.140Z,5.41
2018-04-06T23:01:48.423Z,5.33
2018-04-06T23:04:16.703Z,5.34
2018-04-06T23:06:44.975Z,5.33
2018-04-06T23:09:13.249Z,5.25
2018-04-06T23:11:41.643Z,5.24
2018-04-06T23:14:09.888Z,5.13
2018-04-06T23:16:38.925Z,5.07
2018-04-06T23:19:07.177Z,4.69
2018-04-06T23:21:35.469Z,4.75
2018-04-06T23:24:03.720Z,4.68
2018-04-06T23:26:32.748Z,4.54
2018-04-06T23:29:01.010Z,4.41
2018-04-06T23:31:29.283Z,4.26
2018-04-06T23:33:57.533Z,4.29
2018-04-06T23:36:26.574Z,4.19
2018-04-06T23:38:54.826Z,4.05
2018-04-06T23:41:23.109Z,3.95
2018-04-06T23:43:51.381Z,3.89
2018-04-06T23:46:19.639Z,3.75
2018-04-06T23:48:48.655Z,3.74
2018-04-06T23:51:16.928Z,3.78
2018-04-06T23:53:45.205Z,3.62
2018-04-06T23:56:13.457Z,3.62
2018-04-06T23:58:42.473Z,3.65
